Warning: Javascript must be enabled to use all the features on this page!


Page Loading - Please Wait...

Click to hideNews Bulletins

Peak Streamflow for the Nation

USGS 10257500 FALLS C NR WHITE WATER CA

Riverside County, California
Hydrologic Unit Code 18100201
Latitude  33°52'10", Longitude 116°40'15" NAD27
Drainage area 4.14  square miles
Gage datum 1,940 feet above NGVD29
Output formats
Table
Graph
Tab-separated file
peakfq (watstore) format
Reselect output format
Water
Year
Date Gage
Height
(feet)
Stream-
flow
(cfs)
1995 1995-01-10 6.14 1546
1996 1996-02-20 5.15 35.06
1997 1996-12-09 5.68 93.06
1998 1998-02-14 6.24 1426
1999 1998-11-11 4.38 2.206
2000 2000-02-21 4.66 7.706
2001 2001-01-11 4.60 6.006
2002 2001-11-24 4.33 2.106
2003 2003-03-15 5.55 75.06
2004 2003-12-25 5.23 41.06
2005 2005-01-11 7.94 5826
2006 2006-02-28 6.38 2056
2007 2006-12-27 4.30 1.706
2008 2008-01-05 5.97 1346
2009 2009-02-16 4.56 4.506
2010 2010-01-21 5.14 52.06
2011 2010-12-22 6.59 2446
2012 2011-10-05 4.79 10.06
2013 2013-09-03 5.74 1016
2014 2014-08-02 6.60 2466
2015 2014-12-02 5.29 46.06
2016 2016-01-31 4.75 9.006
2017 2017-01-22 6.14 1616
2018 2018-03-22 5.45 63.86
2019 2019-02-14 10.78 1,6006
2020 2020-03-12 6.28 1876
?
  Peak Streamflow Qualification Codes.